Barrington, New Jersey
Current Conditions -  °F | °C
As of 6:54 PM on Sunday 23 Nov 2014 (Local Time) from KPHL Reporting Station
Broken Clouds Broken Clouds  
Wind Chill: 48°   Ceiling: 25000
Heat Index: 48°   Visibility: 10mi
Dew Point: 33°   Wind: 0mph
Humidity: 56%   Direction: NA
Pressure: 30.11"   Gusts: NA
Location:  39.87°N, 75.05°W
Report Text: KPHL 232354Z 00000KT 10SM SCT100 BKN250 09/01 A3011 RMK AO2 SLP195 T00890006 10122 20083 58009 $
Loading
Personal Weather Stations






























Interactive Weather Map New forecast layout! Learn more

10-Day Weather Forecast

Advertisements
Track Severe Weather on mobile